sensor_id;sensor_type;location;lat;lon;timestamp;temperature;humidity
6940;DHT22;3509;48.510;9.076;2022-08-27T00:02:14;17.80;99.90
6940;DHT22;3509;48.510;9.076;2022-08-27T00:04:41;17.70;99.90
6940;DHT22;3509;48.510;9.076;2022-08-27T00:07:07;17.80;99.90
6940;DHT22;3509;48.510;9.076;2022-08-27T00:09:33;17.90;99.90
6940;DHT22;3509;48.510;9.076;2022-08-27T00:12:00;17.90;99.90
6940;DHT22;3509;48.510;9.076;2022-08-27T00:14:27;17.90;99.90
6940;DHT22;3509;48.510;9.076;2022-08-27T00:16:54;17.80;99.90
6940;DHT22;3509;48.510;9.076;2022-08-27T00:19:19;17.80;99.90
6940;DHT22;3509;48.510;9.076;2022-08-27T00:21:45;17.80;99.90
6940;DHT22;3509;48.510;9.076;2022-08-27T00:24:11;17.80;99.90
6940;DHT22;3509;48.510;9.076;2022-08-27T00:26:37;17.80;99.90
6940;DHT22;3509;48.510;9.076;2022-08-27T00:29:04;17.80;99.90
6940;DHT22;3509;48.510;9.076;2022-08-27T00:31:30;17.80;99.90
6940;DHT22;3509;48.510;9.076;2022-08-27T00:33:56;17.80;99.90
6940;DHT22;3509;48.510;9.076;2022-08-27T00:36:22;17.70;99.90
6940;DHT22;3509;48.510;9.076;2022-08-27T00:38:48;17.70;99.90
6940;DHT22;3509;48.510;9.076;2022-08-27T00:41:14;17.70;99.90
6940;DHT22;3509;48.510;9.076;2022-08-27T00:43:53;17.70;99.90
6940;DHT22;3509;48.510;9.076;2022-08-27T00:49:06;17.80;99.90
6940;DHT22;3509;48.510;9.076;2022-08-27T00:51:34;17.80;99.90
6940;DHT22;3509;48.510;9.076;2022-08-27T00:54:00;17.90;99.90
6940;DHT22;3509;48.510;9.076;2022-08-27T00:56:32;17.90;99.90
6940;DHT22;3509;48.510;9.076;2022-08-27T00:59:00;17.90;99.90
6940;DHT22;3509;48.510;9.076;2022-08-27T01:01:31;17.90;99.90
6940;DHT22;3509;48.510;9.076;2022-08-27T01:04:01;17.90;99.90
6940;DHT22;3509;48.510;9.076;2022-08-27T01:06:33;18.00;99.90
6940;DHT22;3509;48.510;9.076;2022-08-27T01:09:11;18.00;99.90
6940;DHT22;3509;48.510;9.076;2022-08-27T01:11:37;18.00;99.90
6940;DHT22;3509;48.510;9.076;2022-08-27T01:14:04;18.00;99.90
6940;DHT22;3509;48.510;9.076;2022-08-27T01:16:38;18.00;99.90
6940;DHT22;3509;48.510;9.076;2022-08-27T01:19:08;18.00;99.90
6940;DHT22;3509;48.510;9.076;2022-08-27T01:21:44;17.90;99.90
6940;DHT22;3509;48.510;9.076;2022-08-27T01:24:41;17.90;99.90
6940;DHT22;3509;48.510;9.076;2022-08-27T01:27:09;17.90;99.90
6940;DHT22;3509;48.510;9.076;2022-08-27T01:29:35;17.80;99.90
6940;DHT22;3509;48.510;9.076;2022-08-27T01:32:26;17.80;99.90
6940;DHT22;3509;48.510;9.076;2022-08-27T01:34:52;17.80;99.90
6940;DHT22;3509;48.510;9.076;2022-08-27T01:37:19;17.80;99.90
6940;DHT22;3509;48.510;9.076;2022-08-27T01:39:45;17.70;99.90
6940;DHT22;3509;48.510;9.076;2022-08-27T01:42:18;17.70;99.90
6940;DHT22;3509;48.510;9.076;2022-08-27T01:44:52;17.70;99.90
6940;DHT22;3509;48.510;9.076;2022-08-27T01:47:20;17.70;99.90
6940;DHT22;3509;48.510;9.076;2022-08-27T01:49:46;17.70;99.90
6940;DHT22;3509;48.510;9.076;2022-08-27T01:52:13;17.60;99.90
6940;DHT22;3509;48.510;9.076;2022-08-27T01:54:39;17.60;99.90
6940;DHT22;3509;48.510;9.076;2022-08-27T01:57:05;17.50;99.90
6940;DHT22;3509;48.510;9.076;2022-08-27T01:59:31;17.40;99.90
6940;DHT22;3509;48.510;9.076;2022-08-27T02:01:58;17.40;99.90
6940;DHT22;3509;48.510;9.076;2022-08-27T02:04:24;17.30;99.90
6940;DHT22;3509;48.510;9.076;2022-08-27T02:06:50;17.20;99.90
6940;DHT22;3509;48.510;9.076;2022-08-27T02:09:16;17.30;99.90
6940;DHT22;3509;48.510;9.076;2022-08-27T02:11:42;17.20;99.90
6940;DHT22;3509;48.510;9.076;2022-08-27T02:14:07;17.10;99.90
6940;DHT22;3509;48.510;9.076;2022-08-27T02:16:33;17.00;99.90
6940;DHT22;3509;48.510;9.076;2022-08-27T02:18:59;17.00;99.90
6940;DHT22;3509;48.510;9.076;2022-08-27T02:21:25;17.00;99.90
6940;DHT22;3509;48.510;9.076;2022-08-27T02:23:51;17.00;99.90
6940;DHT22;3509;48.510;9.076;2022-08-27T02:26:16;17.00;99.90
6940;DHT22;3509;48.510;9.076;2022-08-27T02:28:42;16.90;99.90
6940;DHT22;3509;48.510;9.076;2022-08-27T02:31:08;16.90;99.90
6940;DHT22;3509;48.510;9.076;2022-08-27T02:33:34;16.90;99.90
6940;DHT22;3509;48.510;9.076;2022-08-27T02:36:01;16.80;99.90
6940;DHT22;3509;48.510;9.076;2022-08-27T02:38:26;16.80;99.90
6940;DHT22;3509;48.510;9.076;2022-08-27T02:40:52;16.70;99.90
6940;DHT22;3509;48.510;9.076;2022-08-27T02:43:17;16.80;99.90
6940;DHT22;3509;48.510;9.076;2022-08-27T02:45:43;16.80;99.90
6940;DHT22;3509;48.510;9.076;2022-08-27T02:48:09;16.90;99.90
6940;DHT22;3509;48.510;9.076;2022-08-27T02:50:35;16.80;99.90
6940;DHT22;3509;48.510;9.076;2022-08-27T02:53:02;16.80;99.90
6940;DHT22;3509;48.510;9.076;2022-08-27T02:55:28;16.80;99.90
6940;DHT22;3509;48.510;9.076;2022-08-27T02:57:54;16.80;99.90
6940;DHT22;3509;48.510;9.076;2022-08-27T03:00:22;16.80;99.90
6940;DHT22;3509;48.510;9.076;2022-08-27T03:02:48;16.80;99.90
6940;DHT22;3509;48.510;9.076;2022-08-27T03:05:15;16.70;99.90
6940;DHT22;3509;48.510;9.076;2022-08-27T03:07:41;16.70;99.90
6940;DHT22;3509;48.510;9.076;2022-08-27T03:10:09;16.70;99.90
6940;DHT22;3509;48.510;9.076;2022-08-27T03:12:36;16.70;99.90
6940;DHT22;3509;48.510;9.076;2022-08-27T03:15:06;16.70;99.90
6940;DHT22;3509;48.510;9.076;2022-08-27T03:17:32;16.70;99.90
6940;DHT22;3509;48.510;9.076;2022-08-27T03:20:16;16.70;99.90
6940;DHT22;3509;48.510;9.076;2022-08-27T03:22:43;16.80;99.90
6940;DHT22;3509;48.510;9.076;2022-08-27T03:25:10;16.90;99.90
6940;DHT22;3509;48.510;9.076;2022-08-27T03:27:36;17.00;99.90
6940;DHT22;3509;48.510;9.076;2022-08-27T03:30:04;17.10;99.90
6940;DHT22;3509;48.510;9.076;2022-08-27T03:32:31;17.10;99.90
6940;DHT22;3509;48.510;9.076;2022-08-27T03:34:59;17.10;99.90
6940;DHT22;3509;48.510;9.076;2022-08-27T03:37:25;17.10;99.90
6940;DHT22;3509;48.510;9.076;2022-08-27T03:39:51;17.00;99.90
6940;DHT22;3509;48.510;9.076;2022-08-27T03:42:16;17.10;99.90
6940;DHT22;3509;48.510;9.076;2022-08-27T03:44:42;17.10;99.90
6940;DHT22;3509;48.510;9.076;2022-08-27T03:47:08;17.20;99.90
6940;DHT22;3509;48.510;9.076;2022-08-27T03:49:34;17.30;99.90
6940;DHT22;3509;48.510;9.076;2022-08-27T03:52:00;17.30;99.90
6940;DHT22;3509;48.510;9.076;2022-08-27T03:54:25;17.30;99.90
6940;DHT22;3509;48.510;9.076;2022-08-27T03:56:51;17.40;99.90
6940;DHT22;3509;48.510;9.076;2022-08-27T03:59:17;17.40;99.90
6940;DHT22;3509;48.510;9.076;2022-08-27T04:01:43;17.50;99.90
6940;DHT22;3509;48.510;9.076;2022-08-27T04:04:09;17.50;99.90
6940;DHT22;3509;48.510;9.076;2022-08-27T04:06:37;17.50;99.90
6940;DHT22;3509;48.510;9.076;2022-08-27T04:09:03;17.50;99.90
6940;DHT22;3509;48.510;9.076;2022-08-27T04:11:29;17.50;99.90
6940;DHT22;3509;48.510;9.076;2022-08-27T04:13:55;17.50;99.90
6940;DHT22;3509;48.510;9.076;2022-08-27T04:16:21;17.50;99.90
6940;DHT22;3509;48.510;9.076;2022-08-27T04:18:47;17.50;99.90
6940;DHT22;3509;48.510;9.076;2022-08-27T04:21:13;17.50;99.90
6940;DHT22;3509;48.510;9.076;2022-08-27T04:23:40;17.50;99.90
6940;DHT22;3509;48.510;9.076;2022-08-27T04:26:08;17.50;99.90
6940;DHT22;3509;48.510;9.076;2022-08-27T04:28:34;17.50;99.90
6940;DHT22;3509;48.510;9.076;2022-08-27T04:31:01;17.60;99.90
6940;DHT22;3509;48.510;9.076;2022-08-27T04:33:28;17.60;99.90
6940;DHT22;3509;48.510;9.076;2022-08-27T04:36:02;17.70;99.90
6940;DHT22;3509;48.510;9.076;2022-08-27T04:38:28;17.70;99.90
6940;DHT22;3509;48.510;9.076;2022-08-27T04:40:54;17.70;99.90
6940;DHT22;3509;48.510;9.076;2022-08-27T04:43:38;17.70;99.90
6940;DHT22;3509;48.510;9.076;2022-08-27T04:46:04;17.80;99.90
6940;DHT22;3509;48.510;9.076;2022-08-27T04:48:31;17.80;99.90
6940;DHT22;3509;48.510;9.076;2022-08-27T04:50:56;17.80;99.90
6940;DHT22;3509;48.510;9.076;2022-08-27T04:53:22;17.80;99.90
6940;DHT22;3509;48.510;9.076;2022-08-27T04:55:50;17.80;99.90
6940;DHT22;3509;48.510;9.076;2022-08-27T04:58:17;17.80;99.90
6940;DHT22;3509;48.510;9.076;2022-08-27T05:00:47;17.80;99.90
6940;DHT22;3509;48.510;9.076;2022-08-27T05:03:14;17.70;99.90
6940;DHT22;3509;48.510;9.076;2022-08-27T05:05:41;17.70;99.90
6940;DHT22;3509;48.510;9.076;2022-08-27T05:08:07;17.80;99.90
6940;DHT22;3509;48.510;9.076;2022-08-27T05:10:42;17.80;99.90
6940;DHT22;3509;48.510;9.076;2022-08-27T05:13:09;17.90;99.90
6940;DHT22;3509;48.510;9.076;2022-08-27T05:15:37;18.00;99.90
6940;DHT22;3509;48.510;9.076;2022-08-27T05:18:03;18.10;99.90
6940;DHT22;3509;48.510;9.076;2022-08-27T05:20:30;18.10;99.90
6940;DHT22;3509;48.510;9.076;2022-08-27T05:22:56;18.20;99.90
6940;DHT22;3509;48.510;9.076;2022-08-27T05:25:23;18.30;99.90
6940;DHT22;3509;48.510;9.076;2022-08-27T05:27:48;18.30;99.90
6940;DHT22;3509;48.510;9.076;2022-08-27T05:30:14;18.40;99.90
6940;DHT22;3509;48.510;9.076;2022-08-27T05:32:40;18.50;99.90
6940;DHT22;3509;48.510;9.076;2022-08-27T05:35:07;18.60;99.90
6940;DHT22;3509;48.510;9.076;2022-08-27T05:37:34;18.70;99.90
6940;DHT22;3509;48.510;9.076;2022-08-27T05:40:00;18.80;99.90
6940;DHT22;3509;48.510;9.076;2022-08-27T05:42:28;18.90;99.90
6940;DHT22;3509;48.510;9.076;2022-08-27T05:44:54;19.00;99.90
6940;DHT22;3509;48.510;9.076;2022-08-27T05:47:19;19.10;99.90
6940;DHT22;3509;48.510;9.076;2022-08-27T05:49:45;19.20;99.90
6940;DHT22;3509;48.510;9.076;2022-08-27T05:52:11;19.30;99.90
6940;DHT22;3509;48.510;9.076;2022-08-27T05:54:37;19.40;99.90
6940;DHT22;3509;48.510;9.076;2022-08-27T05:57:05;19.50;99.90
6940;DHT22;3509;48.510;9.076;2022-08-27T05:59:31;19.50;99.90
6940;DHT22;3509;48.510;9.076;2022-08-27T06:02:15;19.60;99.90
6940;DHT22;3509;48.510;9.076;2022-08-27T06:04:40;19.80;99.90
6940;DHT22;3509;48.510;9.076;2022-08-27T06:07:09;19.80;99.90
6940;DHT22;3509;48.510;9.076;2022-08-27T06:09:35;19.80;99.90
6940;DHT22;3509;48.510;9.076;2022-08-27T06:12:01;19.80;99.90
6940;DHT22;3509;48.510;9.076;2022-08-27T06:14:27;19.80;99.90
6940;DHT22;3509;48.510;9.076;2022-08-27T06:16:53;19.80;99.90
6940;DHT22;3509;48.510;9.076;2022-08-27T06:19:20;19.80;99.90
6940;DHT22;3509;48.510;9.076;2022-08-27T06:21:46;19.90;99.90
6940;DHT22;3509;48.510;9.076;2022-08-27T06:24:12;19.90;99.90
6940;DHT22;3509;48.510;9.076;2022-08-27T06:26:40;19.90;99.90
6940;DHT22;3509;48.510;9.076;2022-08-27T06:29:07;20.00;99.90
6940;DHT22;3509;48.510;9.076;2022-08-27T06:31:34;20.10;99.90
6940;DHT22;3509;48.510;9.076;2022-08-27T06:34:01;20.20;99.90
6940;DHT22;3509;48.510;9.076;2022-08-27T06:36:28;20.20;99.90
6940;DHT22;3509;48.510;9.076;2022-08-27T06:38:54;20.20;99.90
6940;DHT22;3509;48.510;9.076;2022-08-27T06:41:22;20.40;99.90
6940;DHT22;3509;48.510;9.076;2022-08-27T06:43:48;20.60;99.90
6940;DHT22;3509;48.510;9.076;2022-08-27T06:46:16;20.70;99.90
6940;DHT22;3509;48.510;9.076;2022-08-27T06:48:43;20.80;99.90
6940;DHT22;3509;48.510;9.076;2022-08-27T06:51:15;20.90;99.90
6940;DHT22;3509;48.510;9.076;2022-08-27T06:53:43;21.10;99.90
6940;DHT22;3509;48.510;9.076;2022-08-27T06:56:10;21.20;99.90
6940;DHT22;3509;48.510;9.076;2022-08-27T06:58:36;21.20;99.90
6940;DHT22;3509;48.510;9.076;2022-08-27T07:01:11;21.30;99.90
6940;DHT22;3509;48.510;9.076;2022-08-27T07:03:38;21.60;99.90
6940;DHT22;3509;48.510;9.076;2022-08-27T07:06:05;21.90;99.90
6940;DHT22;3509;48.510;9.076;2022-08-27T07:08:32;22.00;99.90
6940;DHT22;3509;48.510;9.076;2022-08-27T07:10:58;22.30;99.90
6940;DHT22;3509;48.510;9.076;2022-08-27T07:13:24;22.30;99.90
6940;DHT22;3509;48.510;9.076;2022-08-27T07:15:49;22.40;99.90
6940;DHT22;3509;48.510;9.076;2022-08-27T07:18:15;22.50;99.90
6940;DHT22;3509;48.510;9.076;2022-08-27T07:20:41;22.50;99.90
6940;DHT22;3509;48.510;9.076;2022-08-27T07:23:07;22.50;99.90
6940;DHT22;3509;48.510;9.076;2022-08-27T07:25:32;22.50;99.90
6940;DHT22;3509;48.510;9.076;2022-08-27T07:27:58;22.70;99.90
6940;DHT22;3509;48.510;9.076;2022-08-27T07:30:25;22.80;99.90
6940;DHT22;3509;48.510;9.076;2022-08-27T07:32:52;22.90;99.90
6940;DHT22;3509;48.510;9.076;2022-08-27T07:35:18;23.20;99.90
6940;DHT22;3509;48.510;9.076;2022-08-27T07:37:44;23.60;99.90
6940;DHT22;3509;48.510;9.076;2022-08-27T07:40:12;24.00;99.90
6940;DHT22;3509;48.510;9.076;2022-08-27T07:42:40;24.80;99.90
6940;DHT22;3509;48.510;9.076;2022-08-27T07:45:25;25.40;99.90
6940;DHT22;3509;48.510;9.076;2022-08-27T07:47:51;25.90;98.50
6940;DHT22;3509;48.510;9.076;2022-08-27T07:50:17;25.90;97.10
6940;DHT22;3509;48.510;9.076;2022-08-27T07:52:42;25.60;97.50
6940;DHT22;3509;48.510;9.076;2022-08-27T07:55:12;25.40;98.10
6940;DHT22;3509;48.510;9.076;2022-08-27T07:57:38;25.00;98.50
6940;DHT22;3509;48.510;9.076;2022-08-27T08:00:05;24.90;98.90
6940;DHT22;3509;48.510;9.076;2022-08-27T08:02:32;24.70;99.30
6940;DHT22;3509;48.510;9.076;2022-08-27T08:04:59;24.70;99.30
6940;DHT22;3509;48.510;9.076;2022-08-27T08:07:25;24.40;99.70
6940;DHT22;3509;48.510;9.076;2022-08-27T08:09:50;24.10;99.90
6940;DHT22;3509;48.510;9.076;2022-08-27T08:12:16;23.90;99.90
6940;DHT22;3509;48.510;9.076;2022-08-27T08:14:42;23.50;99.90
6940;DHT22;3509;48.510;9.076;2022-08-27T08:17:08;23.30;99.90
6940;DHT22;3509;48.510;9.076;2022-08-27T08:19:33;23.00;99.90
6940;DHT22;3509;48.510;9.076;2022-08-27T08:21:59;23.00;99.90
6940;DHT22;3509;48.510;9.076;2022-08-27T08:24:25;22.90;99.90
6940;DHT22;3509;48.510;9.076;2022-08-27T08:26:51;22.80;99.90
6940;DHT22;3509;48.510;9.076;2022-08-27T08:29:16;22.90;99.90
6940;DHT22;3509;48.510;9.076;2022-08-27T08:31:42;22.90;99.90
6940;DHT22;3509;48.510;9.076;2022-08-27T08:34:09;22.90;99.90
6940;DHT22;3509;48.510;9.076;2022-08-27T08:36:35;22.80;99.90
6940;DHT22;3509;48.510;9.076;2022-08-27T08:39:00;22.90;99.90
6940;DHT22;3509;48.510;9.076;2022-08-27T08:43:54;22.50;99.90
6940;DHT22;3509;48.510;9.076;2022-08-27T08:46:29;22.40;99.90
6940;DHT22;3509;48.510;9.076;2022-08-27T08:49:13;22.20;99.90
6940;DHT22;3509;48.510;9.076;2022-08-27T08:51:42;22.10;99.90
6940;DHT22;3509;48.510;9.076;2022-08-27T08:54:19;22.00;99.90
6940;DHT22;3509;48.510;9.076;2022-08-27T08:57:05;21.80;99.90
6940;DHT22;3509;48.510;9.076;2022-08-27T08:59:41;21.80;99.90
6940;DHT22;3509;48.510;9.076;2022-08-27T09:02:11;21.80;99.90
6940;DHT22;3509;48.510;9.076;2022-08-27T09:04:39;21.60;99.90
6940;DHT22;3509;48.510;9.076;2022-08-27T09:07:20;21.50;99.90
6940;DHT22;3509;48.510;9.076;2022-08-27T09:10:19;21.50;99.90
6940;DHT22;3509;48.510;9.076;2022-08-27T09:12:47;21.50;99.90
6940;DHT22;3509;48.510;9.076;2022-08-27T09:15:19;21.50;99.90
6940;DHT22;3509;48.510;9.076;2022-08-27T09:17:46;21.60;99.90
6940;DHT22;3509;48.510;9.076;2022-08-27T09:20:14;21.60;99.90
6940;DHT22;3509;48.510;9.076;2022-08-27T09:22:51;21.60;99.90
6940;DHT22;3509;48.510;9.076;2022-08-27T09:25:36;21.50;99.90
6940;DHT22;3509;48.510;9.076;2022-08-27T09:28:07;21.50;99.90
6940;DHT22;3509;48.510;9.076;2022-08-27T09:30:53;21.50;99.90
6940;DHT22;3509;48.510;9.076;2022-08-27T09:33:20;21.20;99.90
6940;DHT22;3509;48.510;9.076;2022-08-27T09:35:46;20.90;99.90
6940;DHT22;3509;48.510;9.076;2022-08-27T09:38:32;20.50;99.90
6940;DHT22;3509;48.510;9.076;2022-08-27T09:41:08;20.10;99.90
6940;DHT22;3509;48.510;9.076;2022-08-27T09:43:37;19.80;99.90
6940;DHT22;3509;48.510;9.076;2022-08-27T09:46:20;19.70;99.90
6940;DHT22;3509;48.510;9.076;2022-08-27T09:48:46;19.70;99.90
6940;DHT22;3509;48.510;9.076;2022-08-27T09:51:18;19.90;99.90
6940;DHT22;3509;48.510;9.076;2022-08-27T09:53:52;19.90;99.90
6940;DHT22;3509;48.510;9.076;2022-08-27T09:56:31;19.90;99.90
6940;DHT22;3509;48.510;9.076;2022-08-27T09:59:07;19.80;99.90
6940;DHT22;3509;48.510;9.076;2022-08-27T10:01:36;19.80;99.90
6940;DHT22;3509;48.510;9.076;2022-08-27T10:04:15;19.70;99.90
6940;DHT22;3509;48.510;9.076;2022-08-27T10:06:48;19.60;99.90
6940;DHT22;3509;48.510;9.076;2022-08-27T10:09:29;19.60;99.90
6940;DHT22;3509;48.510;9.076;2022-08-27T10:12:26;19.50;99.90
6940;DHT22;3509;48.510;9.076;2022-08-27T10:14:58;19.50;99.90
6940;DHT22;3509;48.510;9.076;2022-08-27T10:17:47;19.40;99.90
6940;DHT22;3509;48.510;9.076;2022-08-27T10:34:14;19.20;99.90
6940;DHT22;3509;48.510;9.076;2022-08-27T10:39:48;18.90;99.90
6940;DHT22;3509;48.510;9.076;2022-08-27T10:42:49;18.80;99.90
6940;DHT22;3509;48.510;9.076;2022-08-27T10:50:48;18.60;99.90
6940;DHT22;3509;48.510;9.076;2022-08-27T10:56:39;18.60;99.90
6940;DHT22;3509;48.510;9.076;2022-08-27T11:04:47;18.80;99.90
6940;DHT22;3509;48.510;9.076;2022-08-27T11:07:24;18.80;99.90
6940;DHT22;3509;48.510;9.076;2022-08-27T11:10:16;18.80;99.90
6940;DHT22;3509;48.510;9.076;2022-08-27T11:12:47;18.70;99.90
6940;DHT22;3509;48.510;9.076;2022-08-27T11:15:21;18.60;99.90
6940;DHT22;3509;48.510;9.076;2022-08-27T11:18:09;18.50;99.90
6940;DHT22;3509;48.510;9.076;2022-08-27T11:23:20;18.40;99.90
6940;DHT22;3509;48.510;9.076;2022-08-27T11:25:57;18.30;99.90
6940;DHT22;3509;48.510;9.076;2022-08-27T11:28:53;18.30;99.90
6940;DHT22;3509;48.510;9.076;2022-08-27T11:34:13;18.30;99.90
6940;DHT22;3509;48.510;9.076;2022-08-27T11:37:07;18.30;99.90
6940;DHT22;3509;48.510;9.076;2022-08-27T11:44:57;18.30;99.90
6940;DHT22;3509;48.510;9.076;2022-08-27T11:47:27;18.30;99.90
6940;DHT22;3509;48.510;9.076;2022-08-27T11:50:01;18.30;99.90
6940;DHT22;3509;48.510;9.076;2022-08-27T11:52:54;18.40;99.90
6940;DHT22;3509;48.510;9.076;2022-08-27T11:57:49;18.50;99.90
6940;DHT22;3509;48.510;9.076;2022-08-27T12:02:41;18.50;99.90
6940;DHT22;3509;48.510;9.076;2022-08-27T12:05:20;18.50;99.90
6940;DHT22;3509;48.510;9.076;2022-08-27T12:07:49;18.60;99.90
6940;DHT22;3509;48.510;9.076;2022-08-27T12:10:28;18.70;99.90
6940;DHT22;3509;48.510;9.076;2022-08-27T12:13:16;18.70;99.90
6940;DHT22;3509;48.510;9.076;2022-08-27T12:26:56;19.10;99.90
6940;DHT22;3509;48.510;9.076;2022-08-27T12:29:39;19.10;99.90
6940;DHT22;3509;48.510;9.076;2022-08-27T12:32:29;19.20;99.90
6940;DHT22;3509;48.510;9.076;2022-08-27T12:35:11;19.10;99.90
6940;DHT22;3509;48.510;9.076;2022-08-27T12:37:50;19.10;99.90
6940;DHT22;3509;48.510;9.076;2022-08-27T12:40:30;19.10;99.90
6940;DHT22;3509;48.510;9.076;2022-08-27T12:43:06;19.10;99.90
6940;DHT22;3509;48.510;9.076;2022-08-27T12:45:33;19.00;99.90
6940;DHT22;3509;48.510;9.076;2022-08-27T12:48:08;19.10;99.90
6940;DHT22;3509;48.510;9.076;2022-08-27T12:50:34;19.10;99.90
6940;DHT22;3509;48.510;9.076;2022-08-27T13:03:45;19.20;99.90
6940;DHT22;3509;48.510;9.076;2022-08-27T13:06:30;19.20;99.90
6940;DHT22;3509;48.510;9.076;2022-08-27T13:09:00;19.30;99.90
6940;DHT22;3509;48.510;9.076;2022-08-27T13:11:43;19.30;99.90
6940;DHT22;3509;48.510;9.076;2022-08-27T13:16:45;19.40;99.90
6940;DHT22;3509;48.510;9.076;2022-08-27T13:19:23;19.40;99.90
6940;DHT22;3509;48.510;9.076;2022-08-27T13:21:50;19.50;99.90
6940;DHT22;3509;48.510;9.076;2022-08-27T13:26:57;19.60;99.90
6940;DHT22;3509;48.510;9.076;2022-08-27T13:29:24;19.70;99.90
6940;DHT22;3509;48.510;9.076;2022-08-27T13:31:51;19.70;99.90
6940;DHT22;3509;48.510;9.076;2022-08-27T13:34:21;19.80;99.90
6940;DHT22;3509;48.510;9.076;2022-08-27T13:37:00;19.80;99.90
6940;DHT22;3509;48.510;9.076;2022-08-27T13:39:29;19.70;99.90
6940;DHT22;3509;48.510;9.076;2022-08-27T13:41:58;19.60;99.90
6940;DHT22;3509;48.510;9.076;2022-08-27T13:44:43;19.50;99.90
6940;DHT22;3509;48.510;9.076;2022-08-27T13:47:22;19.60;99.90
6940;DHT22;3509;48.510;9.076;2022-08-27T13:49:50;19.60;99.90
6940;DHT22;3509;48.510;9.076;2022-08-27T13:52:33;19.60;99.90
6940;DHT22;3509;48.510;9.076;2022-08-27T13:55:05;19.70;99.90
6940;DHT22;3509;48.510;9.076;2022-08-27T13:57:44;19.70;99.90
6940;DHT22;3509;48.510;9.076;2022-08-27T14:02:46;19.50;99.90
6940;DHT22;3509;48.510;9.076;2022-08-27T14:07:48;19.50;99.90
6940;DHT22;3509;48.510;9.076;2022-08-27T14:12:45;19.50;99.90
6940;DHT22;3509;48.510;9.076;2022-08-27T14:18:18;19.70;99.90
6940;DHT22;3509;48.510;9.076;2022-08-27T14:20:44;19.70;99.90
6940;DHT22;3509;48.510;9.076;2022-08-27T14:23:11;19.70;99.90
6940;DHT22;3509;48.510;9.076;2022-08-27T14:25:36;19.70;99.90
6940;DHT22;3509;48.510;9.076;2022-08-27T14:28:02;19.70;99.90
6940;DHT22;3509;48.510;9.076;2022-08-27T14:30:28;19.70;99.90
6940;DHT22;3509;48.510;9.076;2022-08-27T14:32:59;19.80;99.90
6940;DHT22;3509;48.510;9.076;2022-08-27T14:35:26;19.90;99.90
6940;DHT22;3509;48.510;9.076;2022-08-27T14:37:52;19.90;99.90
6940;DHT22;3509;48.510;9.076;2022-08-27T14:40:19;19.70;99.90
6940;DHT22;3509;48.510;9.076;2022-08-27T14:42:44;19.80;99.90
6940;DHT22;3509;48.510;9.076;2022-08-27T14:45:10;19.80;99.90
6940;DHT22;3509;48.510;9.076;2022-08-27T14:47:37;19.80;99.90
6940;DHT22;3509;48.510;9.076;2022-08-27T14:50:07;19.90;99.90
6940;DHT22;3509;48.510;9.076;2022-08-27T14:52:34;20.00;99.90
6940;DHT22;3509;48.510;9.076;2022-08-27T14:54:59;20.10;99.90
6940;DHT22;3509;48.510;9.076;2022-08-27T14:57:25;20.10;99.90
6940;DHT22;3509;48.510;9.076;2022-08-27T14:59:51;20.10;99.90
6940;DHT22;3509;48.510;9.076;2022-08-27T15:02:16;20.10;99.90
6940;DHT22;3509;48.510;9.076;2022-08-27T15:04:43;20.00;99.90
6940;DHT22;3509;48.510;9.076;2022-08-27T15:07:09;20.00;99.90
6940;DHT22;3509;48.510;9.076;2022-08-27T15:09:34;20.00;99.90
6940;DHT22;3509;48.510;9.076;2022-08-27T15:12:00;20.00;99.90
6940;DHT22;3509;48.510;9.076;2022-08-27T15:14:31;19.90;99.90
6940;DHT22;3509;48.510;9.076;2022-08-27T15:16:58;20.00;99.90
6940;DHT22;3509;48.510;9.076;2022-08-27T15:19:26;20.00;99.90
6940;DHT22;3509;48.510;9.076;2022-08-27T15:21:53;20.00;99.90
6940;DHT22;3509;48.510;9.076;2022-08-27T15:24:26;20.00;99.90
6940;DHT22;3509;48.510;9.076;2022-08-27T15:26:54;20.10;99.90
6940;DHT22;3509;48.510;9.076;2022-08-27T15:29:23;20.20;99.90
6940;DHT22;3509;48.510;9.076;2022-08-27T15:31:49;20.20;99.90
6940;DHT22;3509;48.510;9.076;2022-08-27T15:34:15;20.20;99.90
6940;DHT22;3509;48.510;9.076;2022-08-27T15:36:40;20.30;99.90
6940;DHT22;3509;48.510;9.076;2022-08-27T15:39:07;20.20;99.90
6940;DHT22;3509;48.510;9.076;2022-08-27T15:41:34;20.30;99.90
6940;DHT22;3509;48.510;9.076;2022-08-27T15:44:00;20.30;99.90
6940;DHT22;3509;48.510;9.076;2022-08-27T15:46:26;20.30;99.90
6940;DHT22;3509;48.510;9.076;2022-08-27T15:48:52;20.30;99.90
6940;DHT22;3509;48.510;9.076;2022-08-27T15:51:29;20.40;99.90
6940;DHT22;3509;48.510;9.076;2022-08-27T15:53:56;20.40;99.90
6940;DHT22;3509;48.510;9.076;2022-08-27T15:56:23;20.30;99.90
6940;DHT22;3509;48.510;9.076;2022-08-27T15:58:49;20.30;99.90
6940;DHT22;3509;48.510;9.076;2022-08-27T16:01:27;20.30;99.90
6940;DHT22;3509;48.510;9.076;2022-08-27T16:03:54;20.30;99.90
6940;DHT22;3509;48.510;9.076;2022-08-27T16:06:21;20.30;99.90
6940;DHT22;3509;48.510;9.076;2022-08-27T16:08:47;20.30;99.90
6940;DHT22;3509;48.510;9.076;2022-08-27T16:11:12;20.30;99.90
6940;DHT22;3509;48.510;9.076;2022-08-27T16:13:38;20.30;99.90
6940;DHT22;3509;48.510;9.076;2022-08-27T16:16:05;20.30;99.90
6940;DHT22;3509;48.510;9.076;2022-08-27T16:18:32;20.20;99.90
6940;DHT22;3509;48.510;9.076;2022-08-27T16:21:00;20.20;99.90
6940;DHT22;3509;48.510;9.076;2022-08-27T16:23:28;20.20;99.90
6940;DHT22;3509;48.510;9.076;2022-08-27T16:25:54;20.20;99.90
6940;DHT22;3509;48.510;9.076;2022-08-27T16:28:21;20.20;99.90
6940;DHT22;3509;48.510;9.076;2022-08-27T16:30:47;20.20;99.90
6940;DHT22;3509;48.510;9.076;2022-08-27T16:33:14;20.20;99.90
6940;DHT22;3509;48.510;9.076;2022-08-27T16:35:40;20.20;99.90
6940;DHT22;3509;48.510;9.076;2022-08-27T16:38:07;20.20;99.90
6940;DHT22;3509;48.510;9.076;2022-08-27T16:40:38;20.30;99.90
6940;DHT22;3509;48.510;9.076;2022-08-27T16:43:05;20.30;99.90
6940;DHT22;3509;48.510;9.076;2022-08-27T16:45:31;20.30;99.90
6940;DHT22;3509;48.510;9.076;2022-08-27T16:47:56;20.20;99.90
6940;DHT22;3509;48.510;9.076;2022-08-27T16:50:41;20.20;99.90
6940;DHT22;3509;48.510;9.076;2022-08-27T16:53:12;20.20;99.90
6940;DHT22;3509;48.510;9.076;2022-08-27T16:55:39;20.10;99.90
6940;DHT22;3509;48.510;9.076;2022-08-27T16:58:12;20.10;99.90
6940;DHT22;3509;48.510;9.076;2022-08-27T17:00:39;20.00;99.90
6940;DHT22;3509;48.510;9.076;2022-08-27T17:03:06;19.90;99.90
6940;DHT22;3509;48.510;9.076;2022-08-27T17:05:32;19.90;99.90
6940;DHT22;3509;48.510;9.076;2022-08-27T17:07:58;19.90;99.90
6940;DHT22;3509;48.510;9.076;2022-08-27T17:10:25;19.90;99.90
6940;DHT22;3509;48.510;9.076;2022-08-27T17:12:52;19.90;99.90
6940;DHT22;3509;48.510;9.076;2022-08-27T17:15:18;19.90;99.90
6940;DHT22;3509;48.510;9.076;2022-08-27T17:17:44;20.00;99.90
6940;DHT22;3509;48.510;9.076;2022-08-27T17:20:11;20.00;99.90
6940;DHT22;3509;48.510;9.076;2022-08-27T17:22:37;19.90;99.90
6940;DHT22;3509;48.510;9.076;2022-08-27T17:25:04;19.90;99.90
6940;DHT22;3509;48.510;9.076;2022-08-27T17:27:30;19.90;99.90
6940;DHT22;3509;48.510;9.076;2022-08-27T17:29:55;19.80;99.90
6940;DHT22;3509;48.510;9.076;2022-08-27T17:32:21;19.70;99.90
6940;DHT22;3509;48.510;9.076;2022-08-27T17:34:47;19.60;99.90
6940;DHT22;3509;48.510;9.076;2022-08-27T17:37:13;19.50;99.90
6940;DHT22;3509;48.510;9.076;2022-08-27T17:39:38;19.40;99.90
6940;DHT22;3509;48.510;9.076;2022-08-27T17:42:04;19.40;99.90
6940;DHT22;3509;48.510;9.076;2022-08-27T17:44:34;19.40;99.90
6940;DHT22;3509;48.510;9.076;2022-08-27T17:47:02;19.40;99.90